No particular awareness of the weather is required.    There are no Weather-warnings


Meteo18 Weather Cam more information Meteo18 Weather Cam


Thunder radar more information blitzortung!


Rain radar more information rain snow radar


Visit our other weather sites:

Template documentation
and downloads

And another site



Weather Underground History page Text

Daily Summary for August 31, 2017 Units:  Both    English   Metric
« Previous Day
Next Day »
Daily Weekly Monthly Yearly Custom
  High: Low: Average:
Temperature: TemperatureC °F /  -17.8 °C 11.7 °F /  -11.3 °C 15.1 °F /  -9.4 °C
Dew Point: DewpointC °F /  -17.8 °C 8.8 °F /  -12.9 °C 10.4 °F /  -12 °C
Humidity: Humidity % 49 % 75 %
Wind Speed: WindSpeedKMH mph /  0 km/h - 4.3 mph /  6.9 km/h
Wind Gust: WindSpeedGustKMH mph /  0 km/h - -
Wind:- - WSW
Pressure: PressurehPa in /  0 hPa 1014.4 in /  34347.6 hPa -
Precipitation: 0.0 in /  0 mm    
Historical Graphs
 
 
Tabular Data for August 31, 2017
Time Temperature Dew Point Pressure Wind Wind Speed Wind Gust Humidity Rainfall Rate (Hourly)
TemperatureC °F /  -17.8 °C DewpointC °F /  -17.8 °C PressurehPa in /  0 hPa Calm     Humidity % HourlyPrecipMM in /  0 mm
00:02 15.8 °F /  -9 °C 14.3 °F /  -9.8 °C 1014.4 in /  34347.6 hPa WNW 8.0 mph /  12.9 km/h 14.5 mph /  23.3 km/h 91 % 0.0 in /  0 mm
00:12 15.5 °F /  -9.2 °C 14.2 °F /  -9.9 °C 1014.8 in /  34361.1 hPa WNW 8.0 mph /  12.9 km/h 17.7 mph /  28.5 km/h 92 % 0.0 in /  0 mm
00:17 15.4 °F /  -9.2 °C 14.1 °F /  -9.9 °C 1014.8 in /  34361.1 hPa NNW 11.3 mph /  18.2 km/h 17.7 mph /  28.5 km/h 92 % 0.0 in /  0 mm
00:22 15.3 °F /  -9.3 °C 14.0 °F /  -10 °C 1014.8 in /  34361.1 hPa NW 9.7 mph /  15.6 km/h 17.7 mph /  28.5 km/h 92 % 0.0 in /  0 mm
00:32 15.2 °F /  -9.3 °C 13.7 °F /  -10.2 °C 1014.8 in /  34361.1 hPa NW 11.3 mph /  18.2 km/h 16.1 mph /  25.9 km/h 91 % 0.0 in /  0 mm
00:42 15.2 °F /  -9.3 °C 13.7 °F /  -10.2 °C 1014.8 in /  34361.1 hPa WNW 4.8 mph /  7.7 km/h 17.7 mph /  28.5 km/h 91 % 0.0 in /  0 mm
00:52 15.1 °F /  -9.4 °C 13.6 °F /  -10.2 °C 1015.1 in /  34371.3 hPa West 4.8 mph /  7.7 km/h 17.7 mph /  28.5 km/h 91 % 0.0 in /  0 mm
00:57 15.1 °F /  -9.4 °C 13.8 °F /  -10.1 °C 1014.8 in /  34361.1 hPa NNW 6.4 mph /  10.3 km/h 17.7 mph /  28.5 km/h 92 % 0.0 in /  0 mm
01:02 15.1 °F /  -9.4 °C 13.8 °F /  -10.1 °C 1014.8 in /  34361.1 hPa NNW 9.7 mph /  15.6 km/h 17.7 mph /  28.5 km/h 92 % 0.0 in /  0 mm
01:07 15.0 °F /  -9.4 °C 13.7 °F /  -10.2 °C 1015.1 in /  34371.3 hPa WNW 16.1 mph /  25.9 km/h 16.1 mph /  25.9 km/h 92 % 0.0 in /  0 mm
01:12 14.7 °F /  -9.6 °C 13.4 °F /  -10.3 °C 1015.1 in /  34371.3 hPa WNW 8.0 mph /  12.9 km/h 12.9 mph /  20.8 km/h 92 % 0.0 in /  0 mm
01:17 14.5 °F /  -9.7 °C 13.2 °F /  -10.4 °C 1015.1 in /  34371.3 hPa WNW 8.0 mph /  12.9 km/h 17.7 mph /  28.5 km/h 92 % 0.0 in /  0 mm
01:22 14.3 °F /  -9.8 °C 13.0 °F /  -10.6 °C 1015.1 in /  34371.3 hPa NNW 4.8 mph /  7.7 km/h 17.7 mph /  28.5 km/h 92 % 0.0 in /  0 mm
01:32 14.1 °F /  -9.9 °C 12.8 °F /  -10.7 °C 1015.5 in /  34384.8 hPa North 9.7 mph /  15.6 km/h 17.7 mph /  28.5 km/h 92 % 0.0 in /  0 mm
01:42 13.9 °F /  -10.1 °C 12.6 °F /  -10.8 °C 1015.5 in /  34384.8 hPa NNW 16.1 mph /  25.9 km/h 16.1 mph /  25.9 km/h 92 % 0.0 in /  0 mm
01:47 13.9 °F /  -10.1 °C 12.6 °F /  -10.8 °C 1015.5 in /  34384.8 hPa WNW 12.9 mph /  20.8 km/h 24.1 mph /  38.8 km/h 92 % 0.0 in /  0 mm
01:52 13.9 °F /  -10.1 °C 12.6 °F /  -10.8 °C 1015.5 in /  34384.8 hPa West 9.7 mph /  15.6 km/h 24.1 mph /  38.8 km/h 92 % 0.0 in /  0 mm
01:57 13.9 °F /  -10.1 °C 12.6 °F /  -10.8 °C 1015.5 in /  34384.8 hPa NNW 16.1 mph /  25.9 km/h 24.1 mph /  38.8 km/h 92 % 0.0 in /  0 mm
02:02 13.9 °F /  -10.1 °C 12.6 °F /  -10.8 °C 1015.5 in /  34384.8 hPa NW 14.5 mph /  23.3 km/h 19.3 mph /  31.1 km/h 92 % 0.0 in /  0 mm
02:12 13.8 °F /  -10.1 °C 12.5 °F /  -10.8 °C 1015.8 in /  34395 hPa NW 4.8 mph /  7.7 km/h 19.3 mph /  31.1 km/h 92 % 0.0 in /  0 mm
02:17 13.7 °F /  -10.2 °C 12.6 °F /  -10.8 °C 1015.8 in /  34395 hPa West 12.9 mph /  20.8 km/h 19.3 mph /  31.1 km/h 93 % 0.0 in /  0 mm
02:22 13.7 °F /  -10.2 °C 12.6 °F /  -10.8 °C 1015.8 in /  34395 hPa NW 4.8 mph /  7.7 km/h 17.7 mph /  28.5 km/h 93 % 0.0 in /  0 mm
02:32 13.7 °F /  -10.2 °C 12.6 °F /  -10.8 °C 1016.1 in /  34405.1 hPa NNW 11.3 mph /  18.2 km/h 17.7 mph /  28.5 km/h 93 % 0.0 in /  0 mm
02:42 13.7 °F /  -10.2 °C 12.6 °F /  -10.8 °C 1016.1 in /  34405.1 hPa WNW 6.4 mph /  10.3 km/h 19.3 mph /  31.1 km/h 93 % 0.0 in /  0 mm
02:47 13.6 °F /  -10.2 °C 12.5 °F /  -10.8 °C 1016.1 in /  34405.1 hPa NW 6.4 mph /  10.3 km/h 19.3 mph /  31.1 km/h 93 % 0.0 in /  0 mm
02:52 13.5 °F /  -10.3 °C 12.4 °F /  -10.9 °C 1016.1 in /  34405.1 hPa NNW 8.0 mph /  12.9 km/h 11.3 mph /  18.2 km/h 93 % 0.0 in /  0 mm
02:57 13.4 °F /  -10.3 °C 12.3 °F /  -10.9 °C 1016.1 in /  34405.1 hPa NW 4.8 mph /  7.7 km/h 11.3 mph /  18.2 km/h 93 % 0.0 in /  0 mm
03:02 13.4 °F /  -10.3 °C 12.5 °F /  -10.8 °C 1016.1 in /  34405.1 hPa West 4.8 mph /  7.7 km/h 14.5 mph /  23.3 km/h 94 % 0.0 in /  0 mm
03:12 13.3 °F /  -10.4 °C 12.2 °F /  -11 °C 1016.1 in /  34405.1 hPa WNW 8.0 mph /  12.9 km/h 14.5 mph /  23.3 km/h 93 % 0.0 in /  0 mm
03:17 13.2 °F /  -10.4 °C 12.1 °F /  -11.1 °C 1016.1 in /  34405.1 hPa NW 3.2 mph /  5.1 km/h 22.5 mph /  36.2 km/h 93 % 0.0 in /  0 mm
03:22 13.1 °F /  -10.5 °C 12.0 °F /  -11.1 °C 1016.1 in /  34405.1 hPa WNW 9.7 mph /  15.6 km/h 25.7 mph /  41.4 km/h 93 % 0.0 in /  0 mm
03:27 13.1 °F /  -10.5 °C 12.0 °F /  -11.1 °C 1016.5 in /  34418.7 hPa WNW 6.4 mph /  10.3 km/h 25.7 mph /  41.4 km/h 93 % 0.0 in /  0 mm
03:32 13.0 °F /  -10.6 °C 11.9 °F /  -11.2 °C 1016.5 in /  34418.7 hPa West 3.2 mph /  5.1 km/h 25.7 mph /  41.4 km/h 93 % 0.0 in /  0 mm
03:42 13.0 °F /  -10.6 °C 11.9 °F /  -11.2 °C 1016.8 in /  34428.8 hPa NW 3.2 mph /  5.1 km/h 17.7 mph /  28.5 km/h 93 % 0.0 in /  0 mm
03:52 12.8 °F /  -10.7 °C 11.5 °F /  -11.4 °C 1016.8 in /  34428.8 hPa NW 8.0 mph /  12.9 km/h 19.3 mph /  31.1 km/h 92 % 0.0 in /  0 mm
03:57 12.6 °F /  -10.8 °C 11.3 °F /  -11.5 °C 1016.8 in /  34428.8 hPa NNW 4.8 mph /  7.7 km/h 17.7 mph /  28.5 km/h 92 % 0.0 in /  0 mm
04:02 12.5 °F /  -10.8 °C 11.1 °F /  -11.6 °C 1017.2 in /  34442.4 hPa North 3.2 mph /  5.1 km/h 19.3 mph /  31.1 km/h 91 % 0.0 in /  0 mm
04:12 12.6 °F /  -10.8 °C 11.0 °F /  -11.7 °C 1017.2 in /  34442.4 hPa NNE 11.3 mph /  18.2 km/h 19.3 mph /  31.1 km/h 90 % 0.0 in /  0 mm
04:17 12.5 °F /  -10.8 °C 11.1 °F /  -11.6 °C 1017.2 in /  34442.4 hPa WSW 4.8 mph /  7.7 km/h 19.3 mph /  31.1 km/h 91 % 0.0 in /  0 mm
04:22 12.5 °F /  -10.8 °C 11.2 °F /  -11.6 °C 1017.5 in /  34452.6 hPa NNW 4.8 mph /  7.7 km/h 19.3 mph /  31.1 km/h 92 % 0.0 in /  0 mm
04:32 12.4 °F /  -10.9 °C 11.1 °F /  -11.6 °C 1017.5 in /  34452.6 hPa WNW 4.8 mph /  7.7 km/h 17.7 mph /  28.5 km/h 92 % 0.0 in /  0 mm
04:37 12.4 °F /  -10.9 °C 11.1 °F /  -11.6 °C 1017.5 in /  34452.6 hPa NNW 4.8 mph /  7.7 km/h 17.7 mph /  28.5 km/h 92 % 0.0 in /  0 mm
04:42 12.4 °F /  -10.9 °C 11.0 °F /  -11.7 °C 1017.5 in /  34452.6 hPa NW 4.8 mph /  7.7 km/h 17.7 mph /  28.5 km/h 91 % 0.0 in /  0 mm
04:47 12.4 °F /  -10.9 °C 11.0 °F /  -11.7 °C 1017.5 in /  34452.6 hPa NW 8.0 mph /  12.9 km/h 16.1 mph /  25.9 km/h 91 % 0.0 in /  0 mm
04:52 12.4 °F /  -10.9 °C 11.0 °F /  -11.7 °C 1017.5 in /  34452.6 hPa NW 14.5 mph /  23.3 km/h 17.7 mph /  28.5 km/h 91 % 0.0 in /  0 mm
04:57 12.3 °F /  -10.9 °C 10.9 °F /  -11.7 °C 1017.5 in /  34452.6 hPa NNW 4.8 mph /  7.7 km/h 17.7 mph /  28.5 km/h 91 % 0.0 in /  0 mm
05:02 12.4 °F /  -10.9 °C 11.1 °F /  -11.6 °C 1017.8 in /  34462.7 hPa NNW 3.2 mph /  5.1 km/h 17.7 mph /  28.5 km/h 92 % 0.0 in /  0 mm
05:12 12.3 °F /  -10.9 °C 11.0 °F /  -11.7 °C 1017.8 in /  34462.7 hPa NW 4.8 mph /  7.7 km/h 16.1 mph /  25.9 km/h 92 % 0.0 in /  0 mm
05:22 12.4 °F /  -10.9 °C 11.1 °F /  -11.6 °C 1017.8 in /  34462.7 hPa NW 4.8 mph /  7.7 km/h 11.3 mph /  18.2 km/h 92 % 0.0 in /  0 mm
05:32 12.4 °F /  -10.9 °C 11.1 °F /  -11.6 °C 1018.2 in /  34476.3 hPa North 3.2 mph /  5.1 km/h 11.3 mph /  18.2 km/h 92 % 0.0 in /  0 mm
05:42 12.4 °F /  -10.9 °C 11.1 °F /  -11.6 °C 1018.2 in /  34476.3 hPa NW 3.2 mph /  5.1 km/h 9.7 mph /  15.6 km/h 92 % 0.0 in /  0 mm
05:52 12.3 °F /  -10.9 °C 11.0 °F /  -11.7 °C 1018.5 in /  34486.4 hPa NW 1.6 mph /  2.6 km/h 11.3 mph /  18.2 km/h 92 % 0.0 in /  0 mm
06:02 12.2 °F /  -11 °C 10.8 °F /  -11.8 °C 1018.5 in /  34486.4 hPa NW 6.4 mph /  10.3 km/h 17.7 mph /  28.5 km/h 91 % 0.0 in /  0 mm
06:12 12.1 °F /  -11.1 °C 10.7 °F /  -11.8 °C 1018.8 in /  34496.6 hPa NNW 3.2 mph /  5.1 km/h 17.7 mph /  28.5 km/h 91 % 0.0 in /  0 mm
06:17 12.0 °F /  -11.1 °C 10.6 °F /  -11.9 °C 1018.8 in /  34496.6 hPa NW 3.2 mph /  5.1 km/h 17.7 mph /  28.5 km/h 91 % 0.0 in /  0 mm
06:22 12.0 °F /  -11.1 °C 10.6 °F /  -11.9 °C 1018.8 in /  34496.6 hPa NW 3.2 mph /  5.1 km/h 17.7 mph /  28.5 km/h 91 % 0.0 in /  0 mm
06:32 11.9 °F /  -11.2 °C 10.5 °F /  -11.9 °C 1018.8 in /  34496.6 hPa NNW 4.8 mph /  7.7 km/h 11.3 mph /  18.2 km/h 91 % 0.0 in /  0 mm
06:37 11.9 °F /  -11.2 °C 10.3 °F /  -12.1 °C 1019.2 in /  34510.1 hPa WNW 4.8 mph /  7.7 km/h 11.3 mph /  18.2 km/h 90 % 0.0 in /  0 mm
06:42 11.9 °F /  -11.2 °C 10.3 °F /  -12.1 °C 1019.2 in /  34510.1 hPa NNW 4.8 mph /  7.7 km/h 14.5 mph /  23.3 km/h 90 % 0.0 in /  0 mm
06:52 11.8 °F /  -11.2 °C 10.2 °F /  -12.1 °C 1019.2 in /  34510.1 hPa WNW 4.8 mph /  7.7 km/h 14.5 mph /  23.3 km/h 90 % 0.0 in /  0 mm
06:57 11.8 °F /  -11.2 °C 10.2 °F /  -12.1 °C 1019.5 in /  34520.3 hPa NW 11.3 mph /  18.2 km/h 14.5 mph /  23.3 km/h 90 % 0.0 in /  0 mm
07:02 11.8 °F /  -11.2 °C 10.2 °F /  -12.1 °C 1019.5 in /  34520.3 hPa NNE 3.2 mph /  5.1 km/h 14.5 mph /  23.3 km/h 90 % 0.0 in /  0 mm
07:12 11.7 °F /  -11.3 °C 10.3 °F /  -12.1 °C 1019.9 in /  34533.8 hPa WNW 4.8 mph /  7.7 km/h 12.9 mph /  20.8 km/h 91 % 0.0 in /  0 mm
07:17 11.7 °F /  -11.3 °C 10.3 °F /  -12.1 °C 1019.9 in /  34533.8 hPa NW 6.4 mph /  10.3 km/h 12.9 mph /  20.8 km/h 91 % 0.0 in /  0 mm
07:22 11.7 °F /  -11.3 °C 10.1 °F /  -12.2 °C 1019.9 in /  34533.8 hPa NNW 3.2 mph /  5.1 km/h 9.7 mph /  15.6 km/h 90 % 0.0 in /  0 mm
07:32 11.7 °F /  -11.3 °C 10.1 °F /  -12.2 °C 1019.9 in /  34533.8 hPa WNW 12.9 mph /  20.8 km/h 12.9 mph /  20.8 km/h 90 % 0.0 in /  0 mm
07:37 11.7 °F /  -11.3 °C 10.1 °F /  -12.2 °C 1019.9 in /  34533.8 hPa NW 6.4 mph /  10.3 km/h 12.9 mph /  20.8 km/h 90 % 0.0 in /  0 mm
07:42 11.7 °F /  -11.3 °C 10.1 °F /  -12.2 °C 1020.2 in /  34544 hPa West 8.0 mph /  12.9 km/h 12.9 mph /  20.8 km/h 90 % 0.0 in /  0 mm
07:52 11.7 °F /  -11.3 °C 9.9 °F /  -12.3 °C 1020.5 in /  34554.1 hPa WNW 4.8 mph /  7.7 km/h 9.7 mph /  15.6 km/h 89 % 0.0 in /  0 mm
07:57 11.7 °F /  -11.3 °C 9.9 °F /  -12.3 °C 1020.2 in /  34544 hPa WNW 4.8 mph /  7.7 km/h 9.7 mph /  15.6 km/h 89 % 0.0 in /  0 mm
08:02 11.7 °F /  -11.3 °C 9.9 °F /  -12.3 °C 1020.2 in /  34544 hPa WNW 3.2 mph /  5.1 km/h 12.9 mph /  20.8 km/h 89 % 0.0 in /  0 mm
08:12 11.7 °F /  -11.3 °C 9.9 °F /  -12.3 °C 1020.5 in /  34554.1 hPa NW 8.0 mph /  12.9 km/h 9.7 mph /  15.6 km/h 89 % 0.0 in /  0 mm
08:17 11.7 °F /  -11.3 °C 9.9 °F /  -12.3 °C 1020.5 in /  34554.1 hPa NW 3.2 mph /  5.1 km/h 9.7 mph /  15.6 km/h 89 % 0.0 in /  0 mm
08:22 11.7 °F /  -11.3 °C 9.9 °F /  -12.3 °C 1020.5 in /  34554.1 hPa NW 1.6 mph /  2.6 km/h 11.3 mph /  18.2 km/h 89 % 0.0 in /  0 mm
08:32 11.7 °F /  -11.3 °C 9.9 °F /  -12.3 °C 1020.5 in /  34554.1 hPa WSW 1.6 mph /  2.6 km/h 14.5 mph /  23.3 km/h 89 % 0.0 in /  0 mm
08:37 11.7 °F /  -11.3 °C 9.9 °F /  -12.3 °C 1020.9 in /  34567.7 hPa NW 3.2 mph /  5.1 km/h 14.5 mph /  23.3 km/h 89 % 0.0 in /  0 mm
08:42 11.8 °F /  -11.2 °C 10.0 °F /  -12.2 °C 1020.9 in /  34567.7 hPa WNW 1.6 mph /  2.6 km/h 11.3 mph /  18.2 km/h 89 % 0.0 in /  0 mm
08:52 12.0 °F /  -11.1 °C 10.2 °F /  -12.1 °C 1020.9 in /  34567.7 hPa WNW 4.8 mph /  7.7 km/h 8.0 mph /  12.9 km/h 89 % 0.0 in /  0 mm
08:57 12.0 °F /  -11.1 °C 10.2 °F /  -12.1 °C 1020.9 in /  34567.7 hPa West 3.2 mph /  5.1 km/h 8.0 mph /  12.9 km/h 89 % 0.0 in /  0 mm
09:02 12.1 °F /  -11.1 °C 10.3 °F /  -12.1 °C 1020.9 in /  34567.7 hPa WNW 6.4 mph /  10.3 km/h 12.9 mph /  20.8 km/h 89 % 0.0 in /  0 mm
09:12 12.4 °F /  -10.9 °C 10.3 °F /  -12.1 °C 1021.2 in /  34577.8 hPa NW 1.6 mph /  2.6 km/h 12.9 mph /  20.8 km/h 87 % 0.0 in /  0 mm
09:22 12.5 °F /  -10.8 °C 10.2 °F /  -12.1 °C 1021.2 in /  34577.8 hPa WNW 9.7 mph /  15.6 km/h 14.5 mph /  23.3 km/h 86 % 0.0 in /  0 mm
09:32 12.6 °F /  -10.8 °C 10.5 °F /  -11.9 °C 1021.6 in /  34591.4 hPa WNW 1.6 mph /  2.6 km/h 14.5 mph /  23.3 km/h 87 % 0.0 in /  0 mm
09:37 12.7 °F /  -10.7 °C 10.4 °F /  -12 °C 1021.6 in /  34591.4 hPa West 6.4 mph /  10.3 km/h 14.5 mph /  23.3 km/h 86 % 0.0 in /  0 mm
09:42 12.7 °F /  -10.7 °C 10.2 °F /  -12.1 °C 1021.6 in /  34591.4 hPa NNW 4.8 mph /  7.7 km/h 14.5 mph /  23.3 km/h 85 % 0.0 in /  0 mm
09:52 13.3 °F /  -10.4 °C 10.8 °F /  -11.8 °C 1021.6 in /  34591.4 hPa NNW 12.9 mph /  20.8 km/h 12.9 mph /  20.8 km/h 85 % 0.0 in /  0 mm
10:02 13.3 °F /  -10.4 °C 10.3 °F /  -12.1 °C 1021.6 in /  34591.4 hPa NW 3.2 mph /  5.1 km/h 12.9 mph /  20.8 km/h 82 % 0.0 in /  0 mm
10:07 13.2 °F /  -10.4 °C 10.4 °F /  -12 °C 1021.9 in /  34601.5 hPa NW 1.6 mph /  2.6 km/h 12.9 mph /  20.8 km/h 83 % 0.0 in /  0 mm
10:12 13.2 °F /  -10.4 °C 10.4 °F /  -12 °C 1021.9 in /  34601.5 hPa WNW 4.8 mph /  7.7 km/h 14.5 mph /  23.3 km/h 83 % 0.0 in /  0 mm
10:17 13.2 °F /  -10.4 °C 10.4 °F /  -12 °C 1021.9 in /  34601.5 hPa WNW 8.0 mph /  12.9 km/h 14.5 mph /  23.3 km/h 83 % 0.0 in /  0 mm
10:22 13.4 °F /  -10.3 °C 10.6 °F /  -11.9 °C 1021.9 in /  34601.5 hPa NNW 3.2 mph /  5.1 km/h 14.5 mph /  23.3 km/h 83 % 0.0 in /  0 mm
10:32 14.0 °F /  -10 °C 10.6 °F /  -11.9 °C 1021.9 in /  34601.5 hPa NW 1.6 mph /  2.6 km/h 14.5 mph /  23.3 km/h 80 % 0.0 in /  0 mm
10:37 14.0 °F /  -10 °C 10.6 °F /  -11.9 °C 1022.2 in /  34611.7 hPa WNW 3.2 mph /  5.1 km/h 14.5 mph /  23.3 km/h 80 % 0.0 in /  0 mm
10:42 13.7 °F /  -10.2 °C 10.5 °F /  -11.9 °C 1022.2 in /  34611.7 hPa NW 1.6 mph /  2.6 km/h 14.5 mph /  23.3 km/h 81 % 0.0 in /  0 mm
10:52 14.0 °F /  -10 °C 10.4 °F /  -12 °C 1022.2 in /  34611.7 hPa North 4.8 mph /  7.7 km/h 14.5 mph /  23.3 km/h 79 % 0.0 in /  0 mm
10:57 14.1 °F /  -9.9 °C 10.7 °F /  -11.8 °C 1022.2 in /  34611.7 hPa NNW 4.8 mph /  7.7 km/h 14.5 mph /  23.3 km/h 80 % 0.0 in /  0 mm
11:02 14.4 °F /  -9.8 °C 10.6 °F /  -11.9 °C 1022.6 in /  34625.2 hPa NE 6.4 mph /  10.3 km/h 11.3 mph /  18.2 km/h 78 % 0.0 in /  0 mm
11:12 14.7 °F /  -9.6 °C 10.3 °F /  -12.1 °C 1022.6 in /  34625.2 hPa WNW 4.8 mph /  7.7 km/h 12.9 mph /  20.8 km/h 75 % 0.0 in /  0 mm
11:22 14.7 °F /  -9.6 °C 10.3 °F /  -12.1 °C 1022.6 in /  34625.2 hPa NW 3.2 mph /  5.1 km/h 12.9 mph /  20.8 km/h 75 % 0.0 in /  0 mm
11:32 15.2 °F /  -9.3 °C 10.6 °F /  -11.9 °C 1022.6 in /  34625.2 hPa NNW 6.4 mph /  10.3 km/h 11.3 mph /  18.2 km/h 74 % 0.0 in /  0 mm
11:42 15.3 °F /  -9.3 °C 10.3 °F /  -12.1 °C 1022.6 in /  34625.2 hPa WNW 6.4 mph /  10.3 km/h 14.5 mph /  23.3 km/h 72 % 0.0 in /  0 mm
11:52 15.8 °F /  -9 °C 10.8 °F /  -11.8 °C 1022.2 in /  34611.7 hPa NW 8.0 mph /  12.9 km/h 12.9 mph /  20.8 km/h 72 % 0.0 in /  0 mm
12:02 16.0 °F /  -8.9 °C 10.3 °F /  -12.1 °C 1022.6 in /  34625.2 hPa NNW 8.0 mph /  12.9 km/h 16.1 mph /  25.9 km/h 69 % 0.0 in /  0 mm
12:12 16.3 °F /  -8.7 °C 10.4 °F /  -12 °C 1022.6 in /  34625.2 hPa NNE 9.7 mph /  15.6 km/h 16.1 mph /  25.9 km/h 68 % 0.0 in /  0 mm
12:17 16.4 °F /  -8.7 °C 10.0 °F /  -12.2 °C 1022.6 in /  34625.2 hPa NE 9.7 mph /  15.6 km/h 17.7 mph /  28.5 km/h 66 % 0.0 in /  0 mm
12:22 16.6 °F /  -8.6 °C 10.0 °F /  -12.2 °C 1022.6 in /  34625.2 hPa NNW 8.0 mph /  12.9 km/h 17.7 mph /  28.5 km/h 65 % 0.0 in /  0 mm
12:32 16.4 °F /  -8.7 °C 9.8 °F /  -12.3 °C 1022.6 in /  34625.2 hPa WNW 4.8 mph /  7.7 km/h 12.9 mph /  20.8 km/h 65 % 0.0 in /  0 mm
12:42 16.6 °F /  -8.6 °C 10.0 °F /  -12.2 °C 1022.6 in /  34625.2 hPa NE 6.4 mph /  10.3 km/h 12.9 mph /  20.8 km/h 65 % 0.0 in /  0 mm
12:47 16.8 °F /  -8.4 °C 10.0 °F /  -12.2 °C 1022.6 in /  34625.2 hPa NE 6.4 mph /  10.3 km/h 12.9 mph /  20.8 km/h 64 % 0.0 in /  0 mm
12:52 17.1 °F /  -8.3 °C 9.8 °F /  -12.3 °C 1022.6 in /  34625.2 hPa NW 3.2 mph /  5.1 km/h 14.5 mph /  23.3 km/h 62 % 0.0 in /  0 mm
12:57 17.3 °F /  -8.2 °C 9.9 °F /  -12.3 °C 1022.6 in /  34625.2 hPa North 6.4 mph /  10.3 km/h 14.5 mph /  23.3 km/h 62 % 0.0 in /  0 mm
13:02 17.4 °F /  -8.1 °C 9.8 °F /  -12.3 °C 1022.2 in /  34611.7 hPa West 3.2 mph /  5.1 km/h 14.5 mph /  23.3 km/h 61 % 0.0 in /  0 mm
13:12 17.3 °F /  -8.2 °C 9.2 °F /  -12.7 °C 1022.6 in /  34625.2 hPa WNW 8.0 mph /  12.9 km/h 16.1 mph /  25.9 km/h 59 % 0.0 in /  0 mm
13:17 17.3 °F /  -8.2 °C 9.5 °F /  -12.5 °C 1022.6 in /  34625.2 hPa South 1.6 mph /  2.6 km/h 11.3 mph /  18.2 km/h 60 % 0.0 in /  0 mm
13:22 17.4 °F /  -8.1 °C 9.3 °F /  -12.6 °C 1022.6 in /  34625.2 hPa WNW 1.6 mph /  2.6 km/h 11.3 mph /  18.2 km/h 59 % 0.0 in /  0 mm
13:32 18.1 °F /  -7.7 °C 9.4 °F /  -12.6 °C 1022.6 in /  34625.2 hPa NE 4.8 mph /  7.7 km/h 11.3 mph /  18.2 km/h 57 % 0.0 in /  0 mm
13:42 18.2 °F /  -7.7 °C 9.5 °F /  -12.5 °C 1022.2 in /  34611.7 hPa NNE 1.6 mph /  2.6 km/h 12.9 mph /  20.8 km/h 57 % 0.0 in /  0 mm
13:47 18.4 °F /  -7.6 °C 9.7 °F /  -12.4 °C 1022.2 in /  34611.7 hPa NNE 9.7 mph /  15.6 km/h 11.3 mph /  18.2 km/h 57 % 0.0 in /  0 mm
13:57 18.5 °F /  -7.5 °C 9.6 °F /  -12.4 °C 1022.2 in /  34611.7 hPa Calm   12.9 mph /  20.8 km/h 56 % 0.0 in /  0 mm
14:02 18.7 °F /  -7.4 °C 9.7 °F /  -12.4 °C 1022.2 in /  34611.7 hPa WNW 3.2 mph /  5.1 km/h 12.9 mph /  20.8 km/h 56 % 0.0 in /  0 mm
14:07 18.6 °F /  -7.4 °C 9.4 °F /  -12.6 °C 1022.2 in /  34611.7 hPa West 1.6 mph /  2.6 km/h 14.5 mph /  23.3 km/h 55 % 0.0 in /  0 mm
14:12 18.6 °F /  -7.4 °C 9.6 °F /  -12.4 °C 1022.2 in /  34611.7 hPa NNE 6.4 mph /  10.3 km/h 14.5 mph /  23.3 km/h 56 % 0.0 in /  0 mm
14:17 18.4 °F /  -7.6 °C 9.5 °F /  -12.5 °C 1022.2 in /  34611.7 hPa North 6.4 mph /  10.3 km/h 17.7 mph /  28.5 km/h 56 % 0.0 in /  0 mm
14:22 18.5 °F /  -7.5 °C 9.3 °F /  -12.6 °C 1022.2 in /  34611.7 hPa NNW 4.8 mph /  7.7 km/h 17.7 mph /  28.5 km/h 55 % 0.0 in /  0 mm
14:32 18.8 °F /  -7.3 °C 9.0 °F /  -12.8 °C 1022.2 in /  34611.7 hPa Calm   12.9 mph /  20.8 km/h 53 % 0.0 in /  0 mm
14:42 18.6 °F /  -7.4 °C 8.8 °F /  -12.9 °C 1022.2 in /  34611.7 hPa NW 3.2 mph /  5.1 km/h 9.7 mph /  15.6 km/h 53 % 0.0 in /  0 mm
14:47 18.7 °F /  -7.4 °C 9.2 °F /  -12.7 °C 1022.2 in /  34611.7 hPa NNE 8.0 mph /  12.9 km/h 9.7 mph /  15.6 km/h 54 % 0.0 in /  0 mm
14:52 19.1 °F /  -7.2 °C 9.3 °F /  -12.6 °C 1022.2 in /  34611.7 hPa Calm   9.7 mph /  15.6 km/h 53 % 0.0 in /  0 mm
15:02 19.7 °F /  -6.8 °C 9.6 °F /  -12.4 °C 1022.2 in /  34611.7 hPa North 11.3 mph /  18.2 km/h 12.9 mph /  20.8 km/h 52 % 0.0 in /  0 mm
15:12 18.9 °F /  -7.3 °C 8.8 °F /  -12.9 °C 1022.2 in /  34611.7 hPa ENE 6.4 mph /  10.3 km/h 12.9 mph /  20.8 km/h 52 % 0.0 in /  0 mm
15:17 18.9 °F /  -7.3 °C 9.1 °F /  -12.7 °C 1022.2 in /  34611.7 hPa NNW 4.8 mph /  7.7 km/h 22.5 mph /  36.2 km/h 53 % 0.0 in /  0 mm
15:22 18.9 °F /  -7.3 °C 9.1 °F /  -12.7 °C 1021.9 in /  34601.5 hPa NNE 9.7 mph /  15.6 km/h 22.5 mph /  36.2 km/h 53 % 0.0 in /  0 mm
15:32 18.8 °F /  -7.3 °C 9.3 °F /  -12.6 °C 1021.9 in /  34601.5 hPa NW 3.2 mph /  5.1 km/h 11.3 mph /  18.2 km/h 54 % 0.0 in /  0 mm
15:42 18.9 °F /  -7.3 °C 9.1 °F /  -12.7 °C 1021.9 in /  34601.5 hPa NNW 3.2 mph /  5.1 km/h 11.3 mph /  18.2 km/h 53 % 0.0 in /  0 mm
15:52 18.9 °F /  -7.3 °C 9.1 °F /  -12.7 °C 1021.9 in /  34601.5 hPa North 4.8 mph /  7.7 km/h 9.7 mph /  15.6 km/h 53 % 0.0 in /  0 mm
16:02 19.1 °F /  -7.2 °C 9.0 °F /  -12.8 °C 1021.9 in /  34601.5 hPa WNW 3.2 mph /  5.1 km/h 11.3 mph /  18.2 km/h 52 % 0.0 in /  0 mm
16:12 19.1 °F /  -7.2 °C 9.0 °F /  -12.8 °C 1021.9 in /  34601.5 hPa NNE 4.8 mph /  7.7 km/h 11.3 mph /  18.2 km/h 52 % 0.0 in /  0 mm
16:17 19.1 °F /  -7.2 °C 9.6 °F /  -12.4 °C 1021.9 in /  34601.5 hPa WNW 8.0 mph /  12.9 km/h 11.3 mph /  18.2 km/h 54 % 0.0 in /  0 mm
16:22 19.0 °F /  -7.2 °C 9.5 °F /  -12.5 °C 1021.9 in /  34601.5 hPa NNE 3.2 mph /  5.1 km/h 9.7 mph /  15.6 km/h 54 % 0.0 in /  0 mm
16:27 19.1 °F /  -7.2 °C 9.3 °F /  -12.6 °C 1021.9 in /  34601.5 hPa NW 3.2 mph /  5.1 km/h 9.7 mph /  15.6 km/h 53 % 0.0 in /  0 mm
16:32 19.1 °F /  -7.2 °C 9.3 °F /  -12.6 °C 1021.6 in /  34591.4 hPa WNW 4.8 mph /  7.7 km/h 9.7 mph /  15.6 km/h 53 % 0.0 in /  0 mm
16:42 18.9 °F /  -7.3 °C 9.4 °F /  -12.6 °C 1021.6 in /  34591.4 hPa WNW 1.6 mph /  2.6 km/h 11.3 mph /  18.2 km/h 54 % 0.0 in /  0 mm
16:47 19.3 °F /  -7.1 °C 9.5 °F /  -12.5 °C 1021.6 in /  34591.4 hPa North 1.6 mph /  2.6 km/h 11.3 mph /  18.2 km/h 53 % 0.0 in /  0 mm
16:52 19.4 °F /  -7 °C 9.6 °F /  -12.4 °C 1021.6 in /  34591.4 hPa North 8.0 mph /  12.9 km/h 9.7 mph /  15.6 km/h 53 % 0.0 in /  0 mm
16:57 19.7 °F /  -6.8 °C 9.9 °F /  -12.3 °C 1021.6 in /  34591.4 hPa NNE 1.6 mph /  2.6 km/h 11.3 mph /  18.2 km/h 53 % 0.0 in /  0 mm
17:02 20.0 °F /  -6.7 °C 9.6 °F /  -12.4 °C 1021.6 in /  34591.4 hPa WNW 3.2 mph /  5.1 km/h 11.3 mph /  18.2 km/h 51 % 0.0 in /  0 mm
17:12 20.1 °F /  -6.6 °C 9.4 °F /  -12.6 °C 1021.6 in /  34591.4 hPa NW 4.8 mph /  7.7 km/h 9.7 mph /  15.6 km/h 50 % 0.0 in /  0 mm
17:17 20.2 °F /  -6.6 °C 9.7 °F /  -12.4 °C 1021.6 in /  34591.4 hPa Calm   9.7 mph /  15.6 km/h 51 % 0.0 in /  0 mm
17:22 20.2 °F /  -6.6 °C 9.1 °F /  -12.7 °C 1021.6 in /  34591.4 hPa Calm   8.0 mph /  12.9 km/h 49 % 0.0 in /  0 mm
17:32 20.1 °F /  -6.6 °C 9.4 °F /  -12.6 °C 1021.6 in /  34591.4 hPa SW 3.2 mph /  5.1 km/h 8.0 mph /  12.9 km/h 50 % 0.0 in /  0 mm
17:42 20.1 °F /  -6.6 °C 9.4 °F /  -12.6 °C 1021.6 in /  34591.4 hPa NE 3.2 mph /  5.1 km/h 6.4 mph /  10.3 km/h 50 % 0.0 in /  0 mm
17:52 19.8 °F /  -6.8 °C 9.1 °F /  -12.7 °C 1021.6 in /  34591.4 hPa Calm   11.3 mph /  18.2 km/h 50 % 0.0 in /  0 mm
17:57 19.9 °F /  -6.7 °C 9.5 °F /  -12.5 °C 1021.6 in /  34591.4 hPa NNW 4.8 mph /  7.7 km/h 12.9 mph /  20.8 km/h 51 % 0.0 in /  0 mm
18:02 20.2 °F /  -6.6 °C 9.1 °F /  -12.7 °C 1021.6 in /  34591.4 hPa Calm   12.9 mph /  20.8 km/h 49 % 0.0 in /  0 mm
18:12 20.1 °F /  -6.6 °C 9.1 °F /  -12.7 °C 1021.6 in /  34591.4 hPa NNE 8.0 mph /  12.9 km/h 8.0 mph /  12.9 km/h 49 % 0.0 in /  0 mm
18:17 19.8 °F /  -6.8 °C 9.1 °F /  -12.7 °C 1021.6 in /  34591.4 hPa North 1.6 mph /  2.6 km/h 11.3 mph /  18.2 km/h 50 % 0.0 in /  0 mm
18:22 19.7 °F /  -6.8 °C 9.0 °F /  -12.8 °C 1021.6 in /  34591.4 hPa NE 4.8 mph /  7.7 km/h 11.3 mph /  18.2 km/h 50 % 0.0 in /  0 mm
18:32 19.5 °F /  -6.9 °C 9.1 °F /  -12.7 °C 1021.6 in /  34591.4 hPa North 1.6 mph /  2.6 km/h 11.3 mph /  18.2 km/h 51 % 0.0 in /  0 mm
18:42 19.5 °F /  -6.9 °C 9.1 °F /  -12.7 °C 1021.6 in /  34591.4 hPa ENE 1.6 mph /  2.6 km/h 8.0 mph /  12.9 km/h 51 % 0.0 in /  0 mm
18:52 19.3 °F /  -7.1 °C 9.5 °F /  -12.5 °C 1021.6 in /  34591.4 hPa ENE 4.8 mph /  7.7 km/h 4.8 mph /  7.7 km/h 53 % 0.0 in /  0 mm
19:02 19.4 °F /  -7 °C 9.6 °F /  -12.4 °C 1021.6 in /  34591.4 hPa Calm   8.0 mph /  12.9 km/h 53 % 0.0 in /  0 mm
19:12 19.2 °F /  -7.1 °C 9.9 °F /  -12.3 °C 1021.6 in /  34591.4 hPa Calm   8.0 mph /  12.9 km/h 55 % 0.0 in /  0 mm
19:17 19.2 °F /  -7.1 °C 9.7 °F /  -12.4 °C 1021.6 in /  34591.4 hPa Calm   6.4 mph /  10.3 km/h 54 % 0.0 in /  0 mm
19:22 19.1 °F /  -7.2 °C 9.6 °F /  -12.4 °C 1021.6 in /  34591.4 hPa ESE 3.2 mph /  5.1 km/h 6.4 mph /  10.3 km/h 54 % 0.0 in /  0 mm
19:32 18.8 °F /  -7.3 °C 9.6 °F /  -12.4 °C 1021.6 in /  34591.4 hPa Calm   4.8 mph /  7.7 km/h 55 % 0.0 in /  0 mm
19:37 18.8 °F /  -7.3 °C 9.6 °F /  -12.4 °C 1021.6 in /  34591.4 hPa Calm   6.4 mph /  10.3 km/h 55 % 0.0 in /  0 mm
19:42 18.9 °F /  -7.3 °C 9.7 °F /  -12.4 °C 1021.6 in /  34591.4 hPa East 1.6 mph /  2.6 km/h 6.4 mph /  10.3 km/h 55 % 0.0 in /  0 mm
19:52 18.7 °F /  -7.4 °C 9.7 °F /  -12.4 °C 1021.6 in /  34591.4 hPa East 1.6 mph /  2.6 km/h 6.4 mph /  10.3 km/h 56 % 0.0 in /  0 mm
19:57 18.4 °F /  -7.6 °C 9.7 °F /  -12.4 °C 1021.6 in /  34591.4 hPa Calm   6.4 mph /  10.3 km/h 57 % 0.0 in /  0 mm
20:02 18.2 °F /  -7.7 °C 9.8 °F /  -12.3 °C 1021.6 in /  34591.4 hPa Calm   6.4 mph /  10.3 km/h 58 % 0.0 in /  0 mm
20:12 17.7 °F /  -7.9 °C 9.8 °F /  -12.3 °C 1021.6 in /  34591.4 hPa Calm   3.2 mph /  5.1 km/h 60 % 0.0 in /  0 mm
20:17 17.6 °F /  -8 °C 10.0 °F /  -12.2 °C 1021.6 in /  34591.4 hPa Calm   1.6 mph /  2.6 km/h 61 % 0.0 in /  0 mm
20:22 17.3 °F /  -8.2 °C 9.7 °F /  -12.4 °C 1021.6 in /  34591.4 hPa Calm   1.6 mph /  2.6 km/h 61 % 0.0 in /  0 mm
20:32 16.7 °F /  -8.5 °C 9.9 °F /  -12.3 °C 1021.9 in /  34601.5 hPa Calm   1.6 mph /  2.6 km/h 64 % 0.0 in /  0 mm
20:37 16.4 °F /  -8.7 °C 9.8 °F /  -12.3 °C 1021.9 in /  34601.5 hPa Calm   1.6 mph /  2.6 km/h 65 % 0.0 in /  0 mm
20:42 16.2 °F /  -8.8 °C 9.8 °F /  -12.3 °C 1021.9 in /  34601.5 hPa Calm   1.6 mph /  2.6 km/h 66 % 0.0 in /  0 mm
20:52 15.8 °F /  -9 °C 9.7 °F /  -12.4 °C 1021.9 in /  34601.5 hPa Calm   1.6 mph /  2.6 km/h 67 % 0.0 in /  0 mm
21:02 15.1 °F /  -9.4 °C 9.9 °F /  -12.3 °C 1021.9 in /  34601.5 hPa Calm   1.6 mph /  2.6 km/h 71 % 0.0 in /  0 mm
21:12 14.8 °F /  -9.6 °C 9.8 °F /  -12.3 °C 1022.2 in /  34611.7 hPa Calm   1.6 mph /  2.6 km/h 72 % 0.0 in /  0 mm
21:17 14.9 °F /  -9.5 °C 9.7 °F /  -12.4 °C 1022.2 in /  34611.7 hPa Calm     71 % 0.0 in /  0 mm
21:22 15.0 °F /  -9.4 °C 10.0 °F /  -12.2 °C 1022.2 in /  34611.7 hPa Calm     72 % 0.0 in /  0 mm
21:32 14.7 °F /  -9.6 °C 9.7 °F /  -12.4 °C 1022.2 in /  34611.7 hPa Calm     72 % 0.0 in /  0 mm
21:42 14.1 °F /  -9.9 °C 9.9 °F /  -12.3 °C 1022.2 in /  34611.7 hPa WNW 1.6 mph /  2.6 km/h   76 % 0.0 in /  0 mm
21:52 13.7 °F /  -10.2 °C 9.7 °F /  -12.4 °C 1022.2 in /  34611.7 hPa North 1.6 mph /  2.6 km/h 3.2 mph /  5.1 km/h 77 % 0.0 in /  0 mm
21:57 14.0 °F /  -10 °C 10.2 °F /  -12.1 °C 1022.2 in /  34611.7 hPa Calm   3.2 mph /  5.1 km/h 78 % 0.0 in /  0 mm
22:02 14.1 °F /  -9.9 °C 10.3 °F /  -12.1 °C 1022.2 in /  34611.7 hPa Calm   3.2 mph /  5.1 km/h 78 % 0.0 in /  0 mm
22:07 14.1 °F /  -9.9 °C 10.1 °F /  -12.2 °C 1022.2 in /  34611.7 hPa Calm   3.2 mph /  5.1 km/h 77 % 0.0 in /  0 mm
22:12 13.9 °F /  -10.1 °C 10.1 °F /  -12.2 °C 1022.2 in /  34611.7 hPa Calm   3.2 mph /  5.1 km/h 78 % 0.0 in /  0 mm
22:17 13.7 °F /  -10.2 °C 9.9 °F /  -12.3 °C 1022.2 in /  34611.7 hPa Calm     78 % 0.0 in /  0 mm
22:22 13.6 °F /  -10.2 °C 10.0 °F /  -12.2 °C 1022.2 in /  34611.7 hPa Calm   1.6 mph /  2.6 km/h 79 % 0.0 in /  0 mm
22:27 13.6 °F /  -10.2 °C 10.0 °F /  -12.2 °C 1022.2 in /  34611.7 hPa Calm   1.6 mph /  2.6 km/h 79 % 0.0 in /  0 mm
22:32 13.6 °F /  -10.2 °C 10.2 °F /  -12.1 °C 1022.2 in /  34611.7 hPa Calm   1.6 mph /  2.6 km/h 80 % 0.0 in /  0 mm
22:37 13.6 °F /  -10.2 °C 10.2 °F /  -12.1 °C 1022.2 in /  34611.7 hPa Calm   1.6 mph /  2.6 km/h 80 % 0.0 in /  0 mm
22:47 13.5 °F /  -10.3 °C 10.5 °F /  -11.9 °C 1022.6 in /  34625.2 hPa Calm   1.6 mph /  2.6 km/h 82 % 0.0 in /  0 mm
22:52 13.5 °F /  -10.3 °C 10.5 °F /  -11.9 °C 1022.6 in /  34625.2 hPa Calm   1.6 mph /  2.6 km/h 82 % 0.0 in /  0 mm
22:57 13.4 °F /  -10.3 °C 10.4 °F /  -12 °C 1022.6 in /  34625.2 hPa Calm     82 % 0.0 in /  0 mm
23:02 13.4 °F /  -10.3 °C 10.4 °F /  -12 °C 1022.6 in /  34625.2 hPa Calm     82 % 0.0 in /  0 mm
23:07 13.4 °F /  -10.3 °C 10.6 °F /  -11.9 °C 1022.6 in /  34625.2 hPa Calm     83 % 0.0 in /  0 mm
23:12 13.5 °F /  -10.3 °C 10.7 °F /  -11.8 °C 1022.6 in /  34625.2 hPa Calm     83 % 0.0 in /  0 mm
23:17 13.4 °F /  -10.3 °C 10.4 °F /  -12 °C 1022.6 in /  34625.2 hPa Calm     82 % 0.0 in /  0 mm
23:22 13.3 °F /  -10.4 °C 10.3 °F /  -12.1 °C 1022.6 in /  34625.2 hPa Calm     82 % 0.0 in /  0 mm
23:27 13.1 °F /  -10.5 °C 10.3 °F /  -12.1 °C 1022.6 in /  34625.2 hPa Calm     83 % 0.0 in /  0 mm
23:32 13.1 °F /  -10.5 °C 10.3 °F /  -12.1 °C 1022.6 in /  34625.2 hPa Calm     83 % 0.0 in /  0 mm
23:37 13.1 °F /  -10.5 °C 10.3 °F /  -12.1 °C 1022.6 in /  34625.2 hPa Calm     83 % 0.0 in /  0 mm
23:42 13.2 °F /  -10.4 °C 10.4 °F /  -12 °C 1022.6 in /  34625.2 hPa Calm     83 % 0.0 in /  0 mm
23:47 13.1 °F /  -10.5 °C 10.5 °F /  -11.9 °C 1022.6 in /  34625.2 hPa Calm     84 % 0.0 in /  0 mm
23:52 13.2 °F /  -10.4 °C 10.6 °F /  -11.9 °C 1022.6 in /  34625.2 hPa Calm     84 % 0.0 in /  0 mm
23:57 13.2 °F /  -10.4 °C 10.4 °F /  -12 °C 1022.6 in /  34625.2 hPa Calm     83 % 0.0 in /  0 mm
Meteo18
Compliments of Weather Underground - 4 mb

Script developed by  Jim McMurry - jmcmurry@mwt.net Adapted for the template by  Wim van der Kuil - Leuven-Template.eu

You find our weather info also at:

European Weather Network

Weather Underground

Equipment we use:

Weather-station
Davis Vue

Weather-program
Meteobridge

Weather-server
Raspberry PI 2 B+

Provider
1 and 1

Davis Vue

Meteobridge

Raspberry PI 2 B+

1 and 1